sensor_id;sensor_type;location;lat;lon;timestamp;temperature;humidity
25248;DHT22;13191;47.472;11.214;2023-09-18T00:01:37;15.90;99.90
25248;DHT22;13191;47.472;11.214;2023-09-18T00:04:05;15.90;99.90
25248;DHT22;13191;47.472;11.214;2023-09-18T00:06:30;16.00;99.90
25248;DHT22;13191;47.472;11.214;2023-09-18T00:08:56;16.00;99.90
25248;DHT22;13191;47.472;11.214;2023-09-18T00:11:22;16.00;99.90
25248;DHT22;13191;47.472;11.214;2023-09-18T00:13:47;16.00;99.90
25248;DHT22;13191;47.472;11.214;2023-09-18T00:16:13;16.00;99.90
25248;DHT22;13191;47.472;11.214;2023-09-18T00:18:38;15.90;99.90
25248;DHT22;13191;47.472;11.214;2023-09-18T00:21:04;16.00;99.90
25248;DHT22;13191;47.472;11.214;2023-09-18T00:23:32;16.00;99.90
25248;DHT22;13191;47.472;11.214;2023-09-18T00:26:00;15.90;99.90
25248;DHT22;13191;47.472;11.214;2023-09-18T00:28:26;15.90;99.90
25248;DHT22;13191;47.472;11.214;2023-09-18T00:30:51;15.90;99.90
25248;DHT22;13191;47.472;11.214;2023-09-18T00:33:17;15.90;99.90
25248;DHT22;13191;47.472;11.214;2023-09-18T00:35:51;15.90;99.90
25248;DHT22;13191;47.472;11.214;2023-09-18T00:38:17;15.90;99.90
25248;DHT22;13191;47.472;11.214;2023-09-18T00:40:43;15.80;99.90
25248;DHT22;13191;47.472;11.214;2023-09-18T00:43:09;15.80;99.90
25248;DHT22;13191;47.472;11.214;2023-09-18T00:45:39;15.80;99.90
25248;DHT22;13191;47.472;11.214;2023-09-18T00:48:06;15.90;99.90
25248;DHT22;13191;47.472;11.214;2023-09-18T00:50:32;15.90;99.90
25248;DHT22;13191;47.472;11.214;2023-09-18T00:52:59;15.90;99.90
25248;DHT22;13191;47.472;11.214;2023-09-18T00:55:24;15.90;99.90
25248;DHT22;13191;47.472;11.214;2023-09-18T00:57:50;16.00;99.90
25248;DHT22;13191;47.472;11.214;2023-09-18T01:00:16;16.00;99.90
25248;DHT22;13191;47.472;11.214;2023-09-18T01:02:43;15.90;99.90
25248;DHT22;13191;47.472;11.214;2023-09-18T01:05:10;16.00;99.90
25248;DHT22;13191;47.472;11.214;2023-09-18T01:07:36;16.00;99.90
25248;DHT22;13191;47.472;11.214;2023-09-18T01:10:02;16.00;99.90
25248;DHT22;13191;47.472;11.214;2023-09-18T01:12:46;16.00;99.90
25248;DHT22;13191;47.472;11.214;2023-09-18T01:15:32;16.00;99.90
25248;DHT22;13191;47.472;11.214;2023-09-18T01:18:00;16.00;99.90
25248;DHT22;13191;47.472;11.214;2023-09-18T01:20:26;16.00;99.90
25248;DHT22;13191;47.472;11.214;2023-09-18T01:22:52;16.00;99.90
25248;DHT22;13191;47.472;11.214;2023-09-18T01:25:18;16.00;99.90
25248;DHT22;13191;47.472;11.214;2023-09-18T01:27:44;16.00;99.90
25248;DHT22;13191;47.472;11.214;2023-09-18T01:30:10;16.00;99.90
25248;DHT22;13191;47.472;11.214;2023-09-18T01:32:36;16.00;99.90
25248;DHT22;13191;47.472;11.214;2023-09-18T01:35:05;16.10;99.90
25248;DHT22;13191;47.472;11.214;2023-09-18T01:37:33;16.10;99.90
25248;DHT22;13191;47.472;11.214;2023-09-18T01:40:02;16.20;99.90
25248;DHT22;13191;47.472;11.214;2023-09-18T01:42:32;16.30;99.90
25248;DHT22;13191;47.472;11.214;2023-09-18T01:44:58;16.30;99.90
25248;DHT22;13191;47.472;11.214;2023-09-18T01:47:23;16.30;99.90
25248;DHT22;13191;47.472;11.214;2023-09-18T01:49:49;16.40;99.90
25248;DHT22;13191;47.472;11.214;2023-09-18T01:52:15;16.50;99.90
25248;DHT22;13191;47.472;11.214;2023-09-18T01:54:40;16.50;99.90
25248;DHT22;13191;47.472;11.214;2023-09-18T01:57:06;16.70;99.90
25248;DHT22;13191;47.472;11.214;2023-09-18T01:59:33;16.70;99.90
25248;DHT22;13191;47.472;11.214;2023-09-18T02:01:59;16.80;99.90
25248;DHT22;13191;47.472;11.214;2023-09-18T02:04:25;16.80;99.90
25248;DHT22;13191;47.472;11.214;2023-09-18T02:06:53;16.90;99.90
25248;DHT22;13191;47.472;11.214;2023-09-18T02:09:19;16.90;99.90
25248;DHT22;13191;47.472;11.214;2023-09-18T02:11:46;16.90;99.90
25248;DHT22;13191;47.472;11.214;2023-09-18T02:14:12;16.90;99.90
25248;DHT22;13191;47.472;11.214;2023-09-18T02:16:41;17.00;99.90
25248;DHT22;13191;47.472;11.214;2023-09-18T02:19:11;17.30;99.90
25248;DHT22;13191;47.472;11.214;2023-09-18T02:21:37;17.40;99.90
25248;DHT22;13191;47.472;11.214;2023-09-18T02:24:03;17.40;99.90
25248;DHT22;13191;47.472;11.214;2023-09-18T02:26:29;17.50;99.90
25248;DHT22;13191;47.472;11.214;2023-09-18T02:28:57;17.50;99.90
25248;DHT22;13191;47.472;11.214;2023-09-18T02:31:23;17.60;99.90
25248;DHT22;13191;47.472;11.214;2023-09-18T02:33:48;17.60;99.90
25248;DHT22;13191;47.472;11.214;2023-09-18T02:36:14;17.70;99.90
25248;DHT22;13191;47.472;11.214;2023-09-18T02:38:40;17.80;99.90
25248;DHT22;13191;47.472;11.214;2023-09-18T02:41:05;17.90;99.90
25248;DHT22;13191;47.472;11.214;2023-09-18T02:43:31;18.00;99.90
25248;DHT22;13191;47.472;11.214;2023-09-18T02:45:57;18.00;99.90
25248;DHT22;13191;47.472;11.214;2023-09-18T02:48:22;18.10;99.90
25248;DHT22;13191;47.472;11.214;2023-09-18T02:50:48;18.10;99.90
25248;DHT22;13191;47.472;11.214;2023-09-18T02:53:21;18.30;99.90
25248;DHT22;13191;47.472;11.214;2023-09-18T02:55:49;18.30;99.90
25248;DHT22;13191;47.472;11.214;2023-09-18T02:58:15;18.40;99.90
25248;DHT22;13191;47.472;11.214;2023-09-18T03:00:49;18.50;99.90
25248;DHT22;13191;47.472;11.214;2023-09-18T03:03:16;18.60;99.90
25248;DHT22;13191;47.472;11.214;2023-09-18T03:05:43;18.70;99.90
25248;DHT22;13191;47.472;11.214;2023-09-18T03:08:09;18.70;99.90
25248;DHT22;13191;47.472;11.214;2023-09-18T03:10:36;18.70;99.90
25248;DHT22;13191;47.472;11.214;2023-09-18T03:13:03;18.80;99.90
25248;DHT22;13191;47.472;11.214;2023-09-18T03:15:29;18.80;99.90
25248;DHT22;13191;47.472;11.214;2023-09-18T03:17:56;18.90;99.90
25248;DHT22;13191;47.472;11.214;2023-09-18T03:20:23;19.00;99.90
25248;DHT22;13191;47.472;11.214;2023-09-18T03:22:59;19.00;99.90
25248;DHT22;13191;47.472;11.214;2023-09-18T03:25:26;19.00;99.90
25248;DHT22;13191;47.472;11.214;2023-09-18T03:27:52;19.10;99.90
25248;DHT22;13191;47.472;11.214;2023-09-18T03:30:19;19.10;99.90
25248;DHT22;13191;47.472;11.214;2023-09-18T03:32:45;19.10;99.90
25248;DHT22;13191;47.472;11.214;2023-09-18T03:35:11;19.10;99.90
25248;DHT22;13191;47.472;11.214;2023-09-18T03:37:44;19.00;99.90
25248;DHT22;13191;47.472;11.214;2023-09-18T03:40:10;19.10;99.90
25248;DHT22;13191;47.472;11.214;2023-09-18T03:42:35;18.90;99.90
25248;DHT22;13191;47.472;11.214;2023-09-18T03:45:01;18.80;99.90
25248;DHT22;13191;47.472;11.214;2023-09-18T03:47:28;18.80;99.90
25248;DHT22;13191;47.472;11.214;2023-09-18T03:49:54;18.70;99.90
25248;DHT22;13191;47.472;11.214;2023-09-18T03:52:19;18.60;99.90
25248;DHT22;13191;47.472;11.214;2023-09-18T03:54:45;18.70;99.90
25248;DHT22;13191;47.472;11.214;2023-09-18T03:57:10;18.60;99.90
25248;DHT22;13191;47.472;11.214;2023-09-18T03:59:36;18.40;99.90
25248;DHT22;13191;47.472;11.214;2023-09-18T04:02:02;18.30;99.90
25248;DHT22;13191;47.472;11.214;2023-09-18T04:04:28;18.30;99.90
25248;DHT22;13191;47.472;11.214;2023-09-18T04:06:54;18.10;99.90
25248;DHT22;13191;47.472;11.214;2023-09-18T04:09:20;18.10;99.90
25248;DHT22;13191;47.472;11.214;2023-09-18T04:11:45;18.10;99.90
25248;DHT22;13191;47.472;11.214;2023-09-18T04:14:11;18.00;99.90
25248;DHT22;13191;47.472;11.214;2023-09-18T04:16:36;18.10;99.90
25248;DHT22;13191;47.472;11.214;2023-09-18T04:19:04;18.00;99.90
25248;DHT22;13191;47.472;11.214;2023-09-18T04:21:30;17.80;99.90
25248;DHT22;13191;47.472;11.214;2023-09-18T04:23:56;17.70;99.90
25248;DHT22;13191;47.472;11.214;2023-09-18T04:26:24;17.80;99.90
25248;DHT22;13191;47.472;11.214;2023-09-18T04:28:50;17.70;99.90
25248;DHT22;13191;47.472;11.214;2023-09-18T04:31:15;17.70;99.90
25248;DHT22;13191;47.472;11.214;2023-09-18T04:33:41;17.60;99.90
25248;DHT22;13191;47.472;11.214;2023-09-18T04:36:07;17.50;99.90
25248;DHT22;13191;47.472;11.214;2023-09-18T04:38:33;17.50;99.90
25248;DHT22;13191;47.472;11.214;2023-09-18T04:41:02;17.20;99.90
25248;DHT22;13191;47.472;11.214;2023-09-18T04:43:27;17.30;99.90
25248;DHT22;13191;47.472;11.214;2023-09-18T04:45:55;17.30;99.90
25248;DHT22;13191;47.472;11.214;2023-09-18T04:48:21;17.30;99.90
25248;DHT22;13191;47.472;11.214;2023-09-18T04:50:46;17.30;99.90
25248;DHT22;13191;47.472;11.214;2023-09-18T04:53:13;17.20;99.90
25248;DHT22;13191;47.472;11.214;2023-09-18T04:55:39;17.10;99.90
25248;DHT22;13191;47.472;11.214;2023-09-18T04:58:04;17.10;99.90
25248;DHT22;13191;47.472;11.214;2023-09-18T05:00:30;17.10;99.90
25248;DHT22;13191;47.472;11.214;2023-09-18T05:02:57;17.00;99.90
25248;DHT22;13191;47.472;11.214;2023-09-18T05:05:26;16.80;99.90
25248;DHT22;13191;47.472;11.214;2023-09-18T05:07:51;16.90;99.90
25248;DHT22;13191;47.472;11.214;2023-09-18T05:10:17;16.90;99.90
25248;DHT22;13191;47.472;11.214;2023-09-18T05:12:42;16.90;99.90
25248;DHT22;13191;47.472;11.214;2023-09-18T05:15:08;16.90;99.90
25248;DHT22;13191;47.472;11.214;2023-09-18T05:17:43;16.80;99.90
25248;DHT22;13191;47.472;11.214;2023-09-18T05:20:10;16.70;99.90
25248;DHT22;13191;47.472;11.214;2023-09-18T05:22:41;16.70;99.90
25248;DHT22;13191;47.472;11.214;2023-09-18T05:25:08;16.70;99.90
25248;DHT22;13191;47.472;11.214;2023-09-18T05:27:36;16.70;99.90
25248;DHT22;13191;47.472;11.214;2023-09-18T05:30:15;16.60;99.90
25248;DHT22;13191;47.472;11.214;2023-09-18T05:32:44;16.50;99.90
25248;DHT22;13191;47.472;11.214;2023-09-18T05:35:11;16.50;99.90
25248;DHT22;13191;47.472;11.214;2023-09-18T05:37:38;16.50;99.90
25248;DHT22;13191;47.472;11.214;2023-09-18T05:40:08;16.50;99.90
25248;DHT22;13191;47.472;11.214;2023-09-18T05:42:35;16.40;99.90
25248;DHT22;13191;47.472;11.214;2023-09-18T05:45:02;16.50;99.90
25248;DHT22;13191;47.472;11.214;2023-09-18T05:47:32;16.50;99.90
25248;DHT22;13191;47.472;11.214;2023-09-18T05:49:58;16.50;99.90
25248;DHT22;13191;47.472;11.214;2023-09-18T05:52:24;16.40;99.90
25248;DHT22;13191;47.472;11.214;2023-09-18T05:54:50;16.50;99.90
25248;DHT22;13191;47.472;11.214;2023-09-18T05:57:16;16.50;99.90
25248;DHT22;13191;47.472;11.214;2023-09-18T05:59:42;16.60;99.90
25248;DHT22;13191;47.472;11.214;2023-09-18T06:02:10;16.60;99.90
25248;DHT22;13191;47.472;11.214;2023-09-18T06:04:36;16.60;99.90
25248;DHT22;13191;47.472;11.214;2023-09-18T06:07:03;16.50;99.90
25248;DHT22;13191;47.472;11.214;2023-09-18T06:09:29;16.60;99.90
25248;DHT22;13191;47.472;11.214;2023-09-18T06:11:55;16.70;99.90
25248;DHT22;13191;47.472;11.214;2023-09-18T06:14:20;16.70;99.90
25248;DHT22;13191;47.472;11.214;2023-09-18T06:16:46;16.70;99.90
25248;DHT22;13191;47.472;11.214;2023-09-18T06:19:11;16.70;99.90
25248;DHT22;13191;47.472;11.214;2023-09-18T06:21:37;16.60;99.90
25248;DHT22;13191;47.472;11.214;2023-09-18T06:24:02;16.60;99.90
25248;DHT22;13191;47.472;11.214;2023-09-18T06:26:28;16.60;99.90
25248;DHT22;13191;47.472;11.214;2023-09-18T06:28:54;16.60;99.90
25248;DHT22;13191;47.472;11.214;2023-09-18T06:31:20;16.60;99.90
25248;DHT22;13191;47.472;11.214;2023-09-18T06:33:46;16.70;99.90
25248;DHT22;13191;47.472;11.214;2023-09-18T06:36:13;16.70;99.90
25248;DHT22;13191;47.472;11.214;2023-09-18T06:38:38;16.80;99.90
25248;DHT22;13191;47.472;11.214;2023-09-18T06:41:04;16.80;99.90
25248;DHT22;13191;47.472;11.214;2023-09-18T06:43:29;16.90;99.90
25248;DHT22;13191;47.472;11.214;2023-09-18T06:45:55;16.90;99.90
25248;DHT22;13191;47.472;11.214;2023-09-18T06:48:23;17.00;99.90
25248;DHT22;13191;47.472;11.214;2023-09-18T06:50:49;17.00;99.90
25248;DHT22;13191;47.472;11.214;2023-09-18T06:53:14;17.00;99.90
25248;DHT22;13191;47.472;11.214;2023-09-18T06:55:40;17.20;99.90
25248;DHT22;13191;47.472;11.214;2023-09-18T06:58:05;17.20;99.90
25248;DHT22;13191;47.472;11.214;2023-09-18T07:00:31;17.30;99.90
25248;DHT22;13191;47.472;11.214;2023-09-18T07:02:57;17.30;99.90
25248;DHT22;13191;47.472;11.214;2023-09-18T07:05:22;17.40;99.90
25248;DHT22;13191;47.472;11.214;2023-09-18T07:07:48;17.50;99.90
25248;DHT22;13191;47.472;11.214;2023-09-18T07:10:14;17.50;99.90
25248;DHT22;13191;47.472;11.214;2023-09-18T07:12:39;17.60;99.90
25248;DHT22;13191;47.472;11.214;2023-09-18T07:15:05;17.70;99.90
25248;DHT22;13191;47.472;11.214;2023-09-18T07:17:33;17.70;99.90
25248;DHT22;13191;47.472;11.214;2023-09-18T07:20:00;17.80;99.90
25248;DHT22;13191;47.472;11.214;2023-09-18T07:22:26;17.90;99.90
25248;DHT22;13191;47.472;11.214;2023-09-18T07:24:52;18.00;99.90
25248;DHT22;13191;47.472;11.214;2023-09-18T07:27:17;18.20;99.90
25248;DHT22;13191;47.472;11.214;2023-09-18T07:29:43;18.40;99.90
25248;DHT22;13191;47.472;11.214;2023-09-18T07:32:08;18.40;99.90
25248;DHT22;13191;47.472;11.214;2023-09-18T07:34:35;18.50;99.90
25248;DHT22;13191;47.472;11.214;2023-09-18T07:37:00;18.60;99.90
25248;DHT22;13191;47.472;11.214;2023-09-18T07:39:26;18.80;99.90
25248;DHT22;13191;47.472;11.214;2023-09-18T07:41:51;18.90;99.90
25248;DHT22;13191;47.472;11.214;2023-09-18T07:44:21;19.10;99.90
25248;DHT22;13191;47.472;11.214;2023-09-18T07:46:47;19.20;99.90
25248;DHT22;13191;47.472;11.214;2023-09-18T07:49:13;19.40;99.90
25248;DHT22;13191;47.472;11.214;2023-09-18T07:51:39;19.40;99.90
25248;DHT22;13191;47.472;11.214;2023-09-18T07:54:07;19.40;99.90
25248;DHT22;13191;47.472;11.214;2023-09-18T07:56:32;19.60;99.90
25248;DHT22;13191;47.472;11.214;2023-09-18T07:59:00;19.70;99.90
25248;DHT22;13191;47.472;11.214;2023-09-18T08:01:25;19.80;99.90
25248;DHT22;13191;47.472;11.214;2023-09-18T08:03:51;19.80;99.90
25248;DHT22;13191;47.472;11.214;2023-09-18T08:06:17;19.90;99.90
25248;DHT22;13191;47.472;11.214;2023-09-18T08:08:45;20.10;99.90
25248;DHT22;13191;47.472;11.214;2023-09-18T08:11:10;20.00;99.90
25248;DHT22;13191;47.472;11.214;2023-09-18T08:13:36;20.00;99.90
25248;DHT22;13191;47.472;11.214;2023-09-18T08:16:05;20.10;99.90
25248;DHT22;13191;47.472;11.214;2023-09-18T08:18:31;20.10;99.90
25248;DHT22;13191;47.472;11.214;2023-09-18T08:20:57;20.30;99.90
25248;DHT22;13191;47.472;11.214;2023-09-18T08:23:24;20.30;99.90
25248;DHT22;13191;47.472;11.214;2023-09-18T08:25:50;20.30;99.90
25248;DHT22;13191;47.472;11.214;2023-09-18T08:28:17;20.40;99.90
25248;DHT22;13191;47.472;11.214;2023-09-18T08:30:42;20.40;99.90
25248;DHT22;13191;47.472;11.214;2023-09-18T08:33:16;20.30;99.90
25248;DHT22;13191;47.472;11.214;2023-09-18T08:35:44;20.30;99.90
25248;DHT22;13191;47.472;11.214;2023-09-18T08:38:12;20.40;99.90
25248;DHT22;13191;47.472;11.214;2023-09-18T08:40:40;20.30;99.90
25248;DHT22;13191;47.472;11.214;2023-09-18T08:43:07;20.40;99.90
25248;DHT22;13191;47.472;11.214;2023-09-18T08:45:53;20.50;99.90
25248;DHT22;13191;47.472;11.214;2023-09-18T08:48:19;20.50;99.90
25248;DHT22;13191;47.472;11.214;2023-09-18T08:50:45;20.60;99.90
25248;DHT22;13191;47.472;11.214;2023-09-18T08:53:12;20.50;99.90
25248;DHT22;13191;47.472;11.214;2023-09-18T08:55:38;20.50;99.90
25248;DHT22;13191;47.472;11.214;2023-09-18T08:58:05;20.50;99.90
25248;DHT22;13191;47.472;11.214;2023-09-18T09:00:31;20.60;99.90
25248;DHT22;13191;47.472;11.214;2023-09-18T09:02:57;20.60;99.90
25248;DHT22;13191;47.472;11.214;2023-09-18T09:05:23;20.60;99.90
25248;DHT22;13191;47.472;11.214;2023-09-18T09:07:50;20.60;99.90
25248;DHT22;13191;47.472;11.214;2023-09-18T09:10:16;20.60;99.90
25248;DHT22;13191;47.472;11.214;2023-09-18T09:15:22;20.60;99.90
25248;DHT22;13191;47.472;11.214;2023-09-18T09:17:49;20.70;99.90
25248;DHT22;13191;47.472;11.214;2023-09-18T09:20:15;20.70;99.90
25248;DHT22;13191;47.472;11.214;2023-09-18T09:22:44;20.70;99.90
25248;DHT22;13191;47.472;11.214;2023-09-18T09:25:23;20.80;99.90
25248;DHT22;13191;47.472;11.214;2023-09-18T09:27:51;20.80;99.90
25248;DHT22;13191;47.472;11.214;2023-09-18T09:30:22;20.80;99.90
25248;DHT22;13191;47.472;11.214;2023-09-18T09:32:50;20.80;99.90
25248;DHT22;13191;47.472;11.214;2023-09-18T09:35:26;20.90;99.90
25248;DHT22;13191;47.472;11.214;2023-09-18T09:37:54;20.90;99.90
25248;DHT22;13191;47.472;11.214;2023-09-18T09:40:21;21.00;99.90
25248;DHT22;13191;47.472;11.214;2023-09-18T09:42:47;21.00;99.90
25248;DHT22;13191;47.472;11.214;2023-09-18T09:45:16;21.00;99.90
25248;DHT22;13191;47.472;11.214;2023-09-18T09:47:43;21.00;99.90
25248;DHT22;13191;47.472;11.214;2023-09-18T09:50:13;20.90;99.90
25248;DHT22;13191;47.472;11.214;2023-09-18T09:52:49;21.00;99.90
25248;DHT22;13191;47.472;11.214;2023-09-18T09:57:47;21.00;99.90
25248;DHT22;13191;47.472;11.214;2023-09-18T10:00:14;21.00;99.90
25248;DHT22;13191;47.472;11.214;2023-09-18T10:03:03;21.10;99.90
25248;DHT22;13191;47.472;11.214;2023-09-18T10:05:31;21.10;99.90
25248;DHT22;13191;47.472;11.214;2023-09-18T10:08:00;21.10;99.90
25248;DHT22;13191;47.472;11.214;2023-09-18T10:10:31;21.10;99.90
25248;DHT22;13191;47.472;11.214;2023-09-18T10:13:00;21.20;99.90
25248;DHT22;13191;47.472;11.214;2023-09-18T10:15:32;21.20;99.90
25248;DHT22;13191;47.472;11.214;2023-09-18T10:18:00;21.20;99.90
25248;DHT22;13191;47.472;11.214;2023-09-18T10:20:28;21.20;99.90
25248;DHT22;13191;47.472;11.214;2023-09-18T10:22:56;21.20;99.90
25248;DHT22;13191;47.472;11.214;2023-09-18T10:25:28;21.20;99.90
25248;DHT22;13191;47.472;11.214;2023-09-18T10:27:55;21.30;99.90
25248;DHT22;13191;47.472;11.214;2023-09-18T10:30:24;21.30;99.90
25248;DHT22;13191;47.472;11.214;2023-09-18T10:32:51;21.30;99.90
25248;DHT22;13191;47.472;11.214;2023-09-18T10:35:17;21.30;99.90
25248;DHT22;13191;47.472;11.214;2023-09-18T10:37:45;21.40;99.90
25248;DHT22;13191;47.472;11.214;2023-09-18T10:40:12;21.40;99.90
25248;DHT22;13191;47.472;11.214;2023-09-18T10:42:40;21.40;99.90
25248;DHT22;13191;47.472;11.214;2023-09-18T10:45:08;21.40;99.90
25248;DHT22;13191;47.472;11.214;2023-09-18T10:47:41;21.50;99.90
25248;DHT22;13191;47.472;11.214;2023-09-18T10:50:08;21.50;99.90
25248;DHT22;13191;47.472;11.214;2023-09-18T10:52:35;21.50;99.90
25248;DHT22;13191;47.472;11.214;2023-09-18T10:55:02;21.60;99.90
25248;DHT22;13191;47.472;11.214;2023-09-18T10:57:34;21.50;99.90
25248;DHT22;13191;47.472;11.214;2023-09-18T11:00:03;21.60;99.90
25248;DHT22;13191;47.472;11.214;2023-09-18T11:02:40;21.60;99.90
25248;DHT22;13191;47.472;11.214;2023-09-18T11:05:06;21.60;99.90
25248;DHT22;13191;47.472;11.214;2023-09-18T11:07:32;21.60;99.90
25248;DHT22;13191;47.472;11.214;2023-09-18T11:09:57;21.60;99.90
25248;DHT22;13191;47.472;11.214;2023-09-18T11:12:42;21.70;99.90
25248;DHT22;13191;47.472;11.214;2023-09-18T11:15:08;21.70;99.90
25248;DHT22;13191;47.472;11.214;2023-09-18T11:17:39;21.80;99.90
25248;DHT22;13191;47.472;11.214;2023-09-18T11:20:16;21.70;99.90
25248;DHT22;13191;47.472;11.214;2023-09-18T11:22:55;21.70;99.90
25248;DHT22;13191;47.472;11.214;2023-09-18T11:28:16;21.70;99.90
25248;DHT22;13191;47.472;11.214;2023-09-18T11:30:50;21.70;99.90
25248;DHT22;13191;47.472;11.214;2023-09-18T11:33:36;21.70;99.90
25248;DHT22;13191;47.472;11.214;2023-09-18T11:38:31;21.70;99.90
25248;DHT22;13191;47.472;11.214;2023-09-18T11:40:59;21.60;99.90
25248;DHT22;13191;47.472;11.214;2023-09-18T11:43:28;21.40;99.90
25248;DHT22;13191;47.472;11.214;2023-09-18T11:45:58;21.40;99.90
25248;DHT22;13191;47.472;11.214;2023-09-18T11:48:26;21.30;99.90
25248;DHT22;13191;47.472;11.214;2023-09-18T11:50:53;21.00;99.90
25248;DHT22;13191;47.472;11.214;2023-09-18T11:53:20;20.80;99.90
25248;DHT22;13191;47.472;11.214;2023-09-18T11:55:45;20.70;99.90
25248;DHT22;13191;47.472;11.214;2023-09-18T11:58:12;20.50;99.90
25248;DHT22;13191;47.472;11.214;2023-09-18T12:00:38;20.40;99.90
25248;DHT22;13191;47.472;11.214;2023-09-18T12:03:18;20.30;99.90
25248;DHT22;13191;47.472;11.214;2023-09-18T12:06:01;20.40;99.90
25248;DHT22;13191;47.472;11.214;2023-09-18T12:08:31;20.20;99.90
25248;DHT22;13191;47.472;11.214;2023-09-18T12:11:00;20.00;99.90
25248;DHT22;13191;47.472;11.214;2023-09-18T12:13:31;20.00;99.90
25248;DHT22;13191;47.472;11.214;2023-09-18T12:16:00;19.90;99.90
25248;DHT22;13191;47.472;11.214;2023-09-18T12:18:27;20.00;99.90
25248;DHT22;13191;47.472;11.214;2023-09-18T12:20:56;19.90;99.90
25248;DHT22;13191;47.472;11.214;2023-09-18T12:23:24;19.90;99.90
25248;DHT22;13191;47.472;11.214;2023-09-18T12:25:56;19.80;99.90
25248;DHT22;13191;47.472;11.214;2023-09-18T12:28:22;19.80;99.90
25248;DHT22;13191;47.472;11.214;2023-09-18T12:30:50;19.70;99.90
25248;DHT22;13191;47.472;11.214;2023-09-18T12:33:21;19.70;99.90
25248;DHT22;13191;47.472;11.214;2023-09-18T12:35:46;19.70;99.90
25248;DHT22;13191;47.472;11.214;2023-09-18T12:38:19;19.60;99.90
25248;DHT22;13191;47.472;11.214;2023-09-18T12:40:53;19.60;99.90
25248;DHT22;13191;47.472;11.214;2023-09-18T12:43:20;19.60;99.90
25248;DHT22;13191;47.472;11.214;2023-09-18T12:45:48;19.60;99.90
25248;DHT22;13191;47.472;11.214;2023-09-18T12:48:15;19.50;99.90
25248;DHT22;13191;47.472;11.214;2023-09-18T12:50:41;19.50;99.90
25248;DHT22;13191;47.472;11.214;2023-09-18T12:53:14;19.40;99.90
25248;DHT22;13191;47.472;11.214;2023-09-18T12:55:41;19.40;99.90
25248;DHT22;13191;47.472;11.214;2023-09-18T12:58:11;19.40;99.90
25248;DHT22;13191;47.472;11.214;2023-09-18T13:00:37;19.30;99.90
25248;DHT22;13191;47.472;11.214;2023-09-18T13:03:03;19.30;99.90
25248;DHT22;13191;47.472;11.214;2023-09-18T13:05:30;19.30;99.90
25248;DHT22;13191;47.472;11.214;2023-09-18T13:08:03;19.20;99.90
25248;DHT22;13191;47.472;11.214;2023-09-18T13:10:29;19.20;99.90
25248;DHT22;13191;47.472;11.214;2023-09-18T13:12:55;19.20;99.90
25248;DHT22;13191;47.472;11.214;2023-09-18T13:17:52;19.20;99.90
25248;DHT22;13191;47.472;11.214;2023-09-18T13:20:21;19.20;99.90
25248;DHT22;13191;47.472;11.214;2023-09-18T13:22:51;19.20;99.90
25248;DHT22;13191;47.472;11.214;2023-09-18T13:25:24;19.10;99.90
25248;DHT22;13191;47.472;11.214;2023-09-18T13:27:51;19.10;99.90
25248;DHT22;13191;47.472;11.214;2023-09-18T13:30:18;19.20;99.90
25248;DHT22;13191;47.472;11.214;2023-09-18T13:32:46;19.10;99.90
25248;DHT22;13191;47.472;11.214;2023-09-18T13:35:17;19.10;99.90
25248;DHT22;13191;47.472;11.214;2023-09-18T13:37:43;19.10;99.90
25248;DHT22;13191;47.472;11.214;2023-09-18T13:40:10;19.10;99.90
25248;DHT22;13191;47.472;11.214;2023-09-18T13:42:37;19.10;99.90
25248;DHT22;13191;47.472;11.214;2023-09-18T13:45:04;19.10;99.90
25248;DHT22;13191;47.472;11.214;2023-09-18T13:47:32;19.10;99.90
25248;DHT22;13191;47.472;11.214;2023-09-18T13:49:59;19.10;99.90
25248;DHT22;13191;47.472;11.214;2023-09-18T13:52:29;19.00;99.90
25248;DHT22;13191;47.472;11.214;2023-09-18T13:54:58;19.10;99.90
25248;DHT22;13191;47.472;11.214;2023-09-18T13:57:24;19.10;99.90
25248;DHT22;13191;47.472;11.214;2023-09-18T13:59:51;19.10;99.90
25248;DHT22;13191;47.472;11.214;2023-09-18T14:02:17;19.10;99.90
25248;DHT22;13191;47.472;11.214;2023-09-18T14:04:43;19.10;99.90
25248;DHT22;13191;47.472;11.214;2023-09-18T14:07:10;19.10;99.90
25248;DHT22;13191;47.472;11.214;2023-09-18T14:09:37;19.10;99.90
25248;DHT22;13191;47.472;11.214;2023-09-18T14:12:03;19.10;99.90
25248;DHT22;13191;47.472;11.214;2023-09-18T14:14:29;19.00;99.90
25248;DHT22;13191;47.472;11.214;2023-09-18T14:16:55;19.10;99.90
25248;DHT22;13191;47.472;11.214;2023-09-18T14:19:24;19.10;99.90
25248;DHT22;13191;47.472;11.214;2023-09-18T14:21:49;19.10;99.90
25248;DHT22;13191;47.472;11.214;2023-09-18T14:24:16;19.10;99.90
25248;DHT22;13191;47.472;11.214;2023-09-18T14:26:48;19.00;99.90
25248;DHT22;13191;47.472;11.214;2023-09-18T14:29:14;19.00;99.90
25248;DHT22;13191;47.472;11.214;2023-09-18T14:31:40;19.00;99.90
25248;DHT22;13191;47.472;11.214;2023-09-18T14:34:07;19.00;99.90
25248;DHT22;13191;47.472;11.214;2023-09-18T14:36:34;19.00;99.90
25248;DHT22;13191;47.472;11.214;2023-09-18T14:39:00;19.00;99.90
25248;DHT22;13191;47.472;11.214;2023-09-18T14:41:26;19.00;99.90
25248;DHT22;13191;47.472;11.214;2023-09-18T14:43:52;18.90;99.90
25248;DHT22;13191;47.472;11.214;2023-09-18T14:46:18;18.90;99.90
25248;DHT22;13191;47.472;11.214;2023-09-18T14:48:44;18.90;99.90
25248;DHT22;13191;47.472;11.214;2023-09-18T14:51:09;18.90;99.90
25248;DHT22;13191;47.472;11.214;2023-09-18T14:53:35;18.90;99.90
25248;DHT22;13191;47.472;11.214;2023-09-18T14:56:00;18.90;99.90
25248;DHT22;13191;47.472;11.214;2023-09-18T14:58:26;18.90;99.90
25248;DHT22;13191;47.472;11.214;2023-09-18T15:00:53;18.80;99.90
25248;DHT22;13191;47.472;11.214;2023-09-18T15:03:19;18.80;99.90
25248;DHT22;13191;47.472;11.214;2023-09-18T15:05:44;18.70;99.90
25248;DHT22;13191;47.472;11.214;2023-09-18T15:08:10;18.70;99.90
25248;DHT22;13191;47.472;11.214;2023-09-18T15:10:37;18.70;99.90
25248;DHT22;13191;47.472;11.214;2023-09-18T15:13:02;18.60;99.90
25248;DHT22;13191;47.472;11.214;2023-09-18T15:15:28;18.60;99.90
25248;DHT22;13191;47.472;11.214;2023-09-18T15:17:53;18.60;99.90
25248;DHT22;13191;47.472;11.214;2023-09-18T15:20:20;18.60;99.90
25248;DHT22;13191;47.472;11.214;2023-09-18T15:22:49;18.50;99.90
25248;DHT22;13191;47.472;11.214;2023-09-18T15:25:15;18.50;99.90
25248;DHT22;13191;47.472;11.214;2023-09-18T15:27:42;18.50;99.90
25248;DHT22;13191;47.472;11.214;2023-09-18T15:30:08;18.40;99.90